createdAt,value
2018-12-16T00:00:29.182Z,0.00
2018-12-16T00:01:29.184Z,0.00
2018-12-16T00:02:29.196Z,0.00
2018-12-16T00:03:29.198Z,0.00
2018-12-16T00:04:29.202Z,0.00
2018-12-16T00:05:29.215Z,0.00
2018-12-16T00:06:29.222Z,0.00
2018-12-16T00:07:29.232Z,0.00
2018-12-16T00:08:29.239Z,0.00
2018-12-16T00:09:29.238Z,0.00
2018-12-16T00:10:29.248Z,0.00
2018-12-16T00:11:29.260Z,0.00
2018-12-16T00:12:29.262Z,0.00
2018-12-16T00:13:29.268Z,0.00
2018-12-16T00:14:29.274Z,0.00
2018-12-16T00:15:29.281Z,0.00
2018-12-16T00:16:29.300Z,0.00
2018-12-16T00:17:29.313Z,0.00
2018-12-16T00:18:29.312Z,0.00
2018-12-16T00:19:29.310Z,0.00
2018-12-16T00:20:29.317Z,0.00
2018-12-16T00:21:29.329Z,0.00
2018-12-16T00:22:29.960Z,0.00
2018-12-16T00:23:29.337Z,0.00
2018-12-16T00:24:29.341Z,0.00
2018-12-16T00:25:29.351Z,0.00
2018-12-16T00:26:29.360Z,0.00
2018-12-16T00:27:29.367Z,0.00
2018-12-16T00:28:29.371Z,0.00
2018-12-16T00:29:29.383Z,0.00
2018-12-16T00:30:29.392Z,0.00
2018-12-16T00:31:29.393Z,0.00
2018-12-16T00:32:29.404Z,0.00
2018-12-16T00:33:29.411Z,0.00
2018-12-16T00:34:29.416Z,0.00
2018-12-16T00:35:29.423Z,0.00
2018-12-16T00:36:29.428Z,0.00
2018-12-16T00:37:29.446Z,0.00
2018-12-16T00:38:29.442Z,0.00
2018-12-16T00:39:29.446Z,0.00
2018-12-16T00:40:29.460Z,0.00
2018-12-16T00:41:29.468Z,0.00
2018-12-16T00:42:29.472Z,0.00
2018-12-16T00:43:29.476Z,0.00
2018-12-16T00:44:29.484Z,0.00
2018-12-16T00:45:29.494Z,0.00
2018-12-16T00:46:29.505Z,0.00
2018-12-16T00:47:29.506Z,0.00
2018-12-16T00:48:29.515Z,0.00
2018-12-16T00:49:29.525Z,0.00
2018-12-16T00:50:29.522Z,0.00
2018-12-16T00:51:29.538Z,0.00
2018-12-16T00:52:29.539Z,0.00
2018-12-16T00:53:29.551Z,0.00
2018-12-16T00:54:29.570Z,0.00
2018-12-16T00:55:29.562Z,0.00
2018-12-16T00:56:29.642Z,0.00
2018-12-16T00:57:29.591Z,0.00
2018-12-16T00:58:29.593Z,0.00
2018-12-16T00:59:29.595Z,0.00
2018-12-16T01:00:30.330Z,0.00
2018-12-16T01:01:29.613Z,0.00
2018-12-16T01:02:29.633Z,0.00
2018-12-16T01:03:29.629Z,0.00
2018-12-16T01:04:29.651Z,0.00
2018-12-16T01:05:29.640Z,0.00
2018-12-16T01:06:29.663Z,0.00
2018-12-16T01:07:29.653Z,0.00
2018-12-16T01:08:29.663Z,0.00
2018-12-16T01:09:29.669Z,0.00
2018-12-16T01:10:29.708Z,0.00
2018-12-16T01:11:29.677Z,0.00
2018-12-16T01:12:29.706Z,0.00
2018-12-16T01:13:29.694Z,0.00
2018-12-16T01:14:29.703Z,0.00
2018-12-16T01:15:29.717Z,0.00
2018-12-16T01:16:29.739Z,0.00
2018-12-16T01:17:29.729Z,0.00
2018-12-16T01:18:29.739Z,0.00
2018-12-16T01:19:29.739Z,0.00
2018-12-16T01:20:29.746Z,0.00
2018-12-16T01:21:29.749Z,0.00
2018-12-16T01:22:29.765Z,0.00
2018-12-16T01:23:29.767Z,0.00
2018-12-16T01:24:29.786Z,0.00
2018-12-16T01:25:29.779Z,0.00
2018-12-16T01:26:29.785Z,0.00
2018-12-16T01:27:29.797Z,0.00
2018-12-16T01:28:29.802Z,0.00
2018-12-16T01:29:29.804Z,0.00
2018-12-16T01:30:29.819Z,0.00
2018-12-16T01:31:29.827Z,0.00
2018-12-16T01:32:29.833Z,0.00
2018-12-16T01:33:29.835Z,0.00
2018-12-16T01:34:29.845Z,0.00
2018-12-16T01:35:29.853Z,0.00
2018-12-16T01:36:29.865Z,0.00
2018-12-16T01:37:29.854Z,0.00
2018-12-16T01:38:29.872Z,0.00
2018-12-16T01:39:29.884Z,0.00
2018-12-16T01:40:29.890Z,0.00
2018-12-16T01:41:29.892Z,0.00
2018-12-16T01:42:29.900Z,0.00
2018-12-16T01:43:29.913Z,0.00
2018-12-16T01:44:29.915Z,0.00
2018-12-16T01:45:29.918Z,0.00
2018-12-16T01:46:29.930Z,0.00
2018-12-16T01:47:29.939Z,0.00
2018-12-16T01:48:29.942Z,0.00
2018-12-16T01:49:29.953Z,0.00
2018-12-16T01:50:29.952Z,0.00
2018-12-16T01:51:29.966Z,0.00
2018-12-16T01:52:29.970Z,0.00
2018-12-16T01:53:29.980Z,0.00
2018-12-16T01:54:30.000Z,0.00
2018-12-16T01:55:29.998Z,0.00
2018-12-16T01:56:30.002Z,0.00
2018-12-16T01:57:30.014Z,0.00
2018-12-16T01:58:30.017Z,0.00
2018-12-16T01:59:30.035Z,0.00
2018-12-16T02:00:30.027Z,0.00
2018-12-16T02:01:30.831Z,0.00
2018-12-16T02:02:30.044Z,0.00
2018-12-16T02:03:30.049Z,0.00
2018-12-16T02:04:30.059Z,0.00
2018-12-16T02:05:30.059Z,0.00
2018-12-16T02:06:30.073Z,0.00
2018-12-16T02:07:30.069Z,0.00
2018-12-16T02:08:30.091Z,0.00
2018-12-16T02:09:30.085Z,0.00
2018-12-16T02:10:30.107Z,0.00
2018-12-16T02:11:30.107Z,0.00
2018-12-16T02:12:30.114Z,0.00
2018-12-16T02:13:30.135Z,0.00
2018-12-16T02:14:30.133Z,0.00
2018-12-16T02:15:30.151Z,0.00
2018-12-16T02:16:30.141Z,0.00
2018-12-16T02:17:30.189Z,0.00
2018-12-16T02:18:30.157Z,0.00
2018-12-16T02:19:30.831Z,0.00
2018-12-16T02:20:30.171Z,0.00
2018-12-16T02:21:30.189Z,0.00
2018-12-16T02:22:30.183Z,0.00
2018-12-16T02:23:30.189Z,0.00
2018-12-16T02:24:30.200Z,0.00
2018-12-16T02:25:30.217Z,0.00
2018-12-16T02:26:30.213Z,0.00
2018-12-16T02:27:30.229Z,0.00
2018-12-16T02:28:30.225Z,0.00
2018-12-16T02:29:30.244Z,0.00
2018-12-16T02:30:30.246Z,0.00
2018-12-16T02:31:30.257Z,0.00
2018-12-16T02:32:30.255Z,0.00
2018-12-16T02:33:30.262Z,0.00
2018-12-16T02:34:30.268Z,0.00
2018-12-16T02:35:30.271Z,0.00
2018-12-16T02:36:30.288Z,0.00
2018-12-16T02:37:30.292Z,0.00
2018-12-16T02:38:30.299Z,0.00
2018-12-16T02:39:30.300Z,0.00
2018-12-16T02:40:30.306Z,0.00
2018-12-16T02:41:30.318Z,0.00
2018-12-16T02:42:30.324Z,0.00
2018-12-16T02:43:30.333Z,0.00
2018-12-16T02:44:30.332Z,0.00
2018-12-16T02:45:30.340Z,0.00
2018-12-16T02:46:30.347Z,0.00
2018-12-16T02:47:30.364Z,0.00
2018-12-16T02:48:30.360Z,0.00
2018-12-16T02:49:30.373Z,0.00
2018-12-16T02:50:30.372Z,0.00
2018-12-16T02:51:30.389Z,0.00
2018-12-16T02:52:30.387Z,0.00
2018-12-16T02:53:30.397Z,0.00
2018-12-16T02:54:30.403Z,0.00
2018-12-16T02:55:30.412Z,0.00
2018-12-16T02:56:30.421Z,0.00
2018-12-16T02:57:30.423Z,0.00
2018-12-16T02:58:30.437Z,0.00
2018-12-16T02:59:30.436Z,0.00
2018-12-16T03:00:30.443Z,0.00
2018-12-16T03:01:30.449Z,0.00
2018-12-16T03:02:30.454Z,0.00
2018-12-16T03:03:30.467Z,0.00
2018-12-16T03:04:30.471Z,0.00
2018-12-16T03:05:30.469Z,0.00
2018-12-16T03:06:30.478Z,0.00
2018-12-16T03:07:30.495Z,0.00
2018-12-16T03:08:30.506Z,0.00
2018-12-16T03:09:30.496Z,0.00
2018-12-16T03:10:30.510Z,0.00
2018-12-16T03:11:30.515Z,0.00
2018-12-16T03:12:30.526Z,0.00
2018-12-16T03:13:30.528Z,0.00
2018-12-16T03:14:30.544Z,0.00
2018-12-16T03:15:30.539Z,0.00
2018-12-16T03:16:30.559Z,0.00
2018-12-16T03:17:30.553Z,0.00
2018-12-16T03:18:30.555Z,0.00
2018-12-16T03:19:30.565Z,0.00
2018-12-16T03:20:30.576Z,0.00
2018-12-16T03:21:30.583Z,0.00
2018-12-16T03:22:30.585Z,0.00
2018-12-16T03:23:30.598Z,0.00
2018-12-16T03:24:30.603Z,0.00
2018-12-16T03:25:30.622Z,0.00
2018-12-16T03:26:35.795Z,0.00
2018-12-16T03:27:30.626Z,0.00
2018-12-16T03:28:30.628Z,0.00
2018-12-16T03:29:30.623Z,0.00
2018-12-16T03:30:30.651Z,0.00
2018-12-16T03:31:30.649Z,0.00
2018-12-16T03:32:30.654Z,0.00
2018-12-16T03:33:30.665Z,0.00
2018-12-16T03:34:30.670Z,0.00
2018-12-16T03:35:30.673Z,0.00
2018-12-16T03:36:30.688Z,0.00
2018-12-16T03:37:30.688Z,0.00
2018-12-16T03:38:30.689Z,0.00
2018-12-16T03:39:30.704Z,0.00
2018-12-16T03:40:30.709Z,0.00
2018-12-16T03:41:30.703Z,0.00
2018-12-16T03:42:30.719Z,0.00
2018-12-16T03:43:30.729Z,0.00
2018-12-16T03:44:30.735Z,0.00
2018-12-16T03:45:30.740Z,0.00
2018-12-16T03:46:30.748Z,0.00
2018-12-16T03:47:30.759Z,0.00
2018-12-16T03:48:30.755Z,0.00
2018-12-16T03:49:30.767Z,0.00
2018-12-16T03:50:30.773Z,0.00
2018-12-16T03:51:30.783Z,0.00
2018-12-16T03:52:30.788Z,0.00
2018-12-16T03:53:30.797Z,0.00
2018-12-16T03:54:30.800Z,0.00
2018-12-16T03:55:30.805Z,0.00
2018-12-16T03:56:30.810Z,0.00
2018-12-16T03:57:30.823Z,0.00
2018-12-16T03:58:30.825Z,0.00
2018-12-16T03:59:30.831Z,0.00
2018-12-16T04:00:30.833Z,0.00
2018-12-16T04:01:30.851Z,0.00
2018-12-16T04:02:30.847Z,0.00
2018-12-16T04:03:30.855Z,0.00
2018-12-16T04:04:30.864Z,0.00
2018-12-16T04:05:30.869Z,0.00
2018-12-16T04:06:30.886Z,0.00
2018-12-16T04:07:30.881Z,0.00
2018-12-16T04:08:30.890Z,0.00
2018-12-16T04:09:30.897Z,0.00
2018-12-16T04:10:30.897Z,0.00
2018-12-16T04:11:30.912Z,0.00
2018-12-16T04:12:30.918Z,0.00
2018-12-16T04:13:30.921Z,0.00
2018-12-16T04:14:30.933Z,0.00
2018-12-16T04:15:30.935Z,0.00
2018-12-16T04:16:30.941Z,0.00
2018-12-16T04:17:30.953Z,0.00
2018-12-16T04:18:30.959Z,0.00
2018-12-16T04:19:30.962Z,0.00
2018-12-16T04:20:30.972Z,0.00
2018-12-16T04:21:30.980Z,0.00
2018-12-16T04:22:30.982Z,0.00
2018-12-16T04:23:30.990Z,0.00
2018-12-16T04:24:30.996Z,0.00
2018-12-16T04:25:31.007Z,0.00
2018-12-16T04:26:31.009Z,0.00
2018-12-16T04:27:31.028Z,0.00
2018-12-16T04:28:31.030Z,0.00
2018-12-16T04:29:31.037Z,0.00
2018-12-16T04:30:31.037Z,0.00
2018-12-16T04:31:31.040Z,0.00
2018-12-16T04:32:31.057Z,0.00
2018-12-16T04:33:31.044Z,0.00
2018-12-16T04:34:31.064Z,0.00
2018-12-16T04:35:31.066Z,0.00
2018-12-16T04:36:31.084Z,0.00
2018-12-16T04:37:31.088Z,0.00
2018-12-16T04:38:31.084Z,0.00
2018-12-16T04:39:31.089Z,0.00
2018-12-16T04:40:31.100Z,0.00
2018-12-16T04:41:31.107Z,0.00
2018-12-16T04:42:31.120Z,0.00
2018-12-16T04:43:31.115Z,0.00
2018-12-16T04:44:31.146Z,0.00
2018-12-16T04:45:31.134Z,0.00
2018-12-16T04:46:31.133Z,0.00
2018-12-16T04:47:31.145Z,0.00
2018-12-16T04:48:31.156Z,0.00
2018-12-16T04:49:31.161Z,0.00
2018-12-16T04:50:31.164Z,0.00
2018-12-16T04:51:31.167Z,0.00
2018-12-16T04:52:31.174Z,0.00
2018-12-16T04:53:35.908Z,0.00
2018-12-16T04:54:31.195Z,0.00
2018-12-16T04:55:31.199Z,0.00
2018-12-16T04:56:31.201Z,0.00
2018-12-16T04:57:31.209Z,0.00
2018-12-16T04:58:31.212Z,0.00
2018-12-16T04:59:31.218Z,0.00
2018-12-16T05:00:31.224Z,0.00
2018-12-16T05:01:31.232Z,0.00
2018-12-16T05:02:31.240Z,0.00
2018-12-16T05:03:31.244Z,0.00
2018-12-16T05:04:31.254Z,0.00
2018-12-16T05:05:31.263Z,0.00
2018-12-16T05:06:31.271Z,0.00
2018-12-16T05:07:31.289Z,0.00
2018-12-16T05:08:31.275Z,0.00
2018-12-16T05:09:31.282Z,0.00
2018-12-16T05:10:31.301Z,0.00
2018-12-16T05:11:31.295Z,0.00
2018-12-16T05:12:31.305Z,0.00
2018-12-16T05:13:31.306Z,0.00
2018-12-16T05:14:31.317Z,0.00
2018-12-16T05:15:31.323Z,0.00
2018-12-16T05:16:31.324Z,0.00
2018-12-16T05:17:31.333Z,0.00
2018-12-16T05:18:31.343Z,0.00
2018-12-16T05:19:31.342Z,0.00
2018-12-16T05:20:31.355Z,0.00
2018-12-16T05:21:31.362Z,0.00
2018-12-16T05:22:31.365Z,0.00
2018-12-16T05:23:31.371Z,0.00
2018-12-16T05:24:31.379Z,0.00
2018-12-16T05:25:31.385Z,0.00
2018-12-16T05:26:31.402Z,0.00
2018-12-16T05:27:31.402Z,0.00
2018-12-16T05:28:31.411Z,0.00
2018-12-16T05:29:31.413Z,0.00
2018-12-16T05:30:31.417Z,0.00
2018-12-16T05:31:31.419Z,0.00
2018-12-16T05:32:32.788Z,0.00
2018-12-16T05:33:31.439Z,0.00
2018-12-16T05:34:31.443Z,0.00
2018-12-16T05:35:31.449Z,0.00
2018-12-16T05:36:31.455Z,0.00
2018-12-16T05:37:31.464Z,0.00
2018-12-16T05:38:31.471Z,0.00
2018-12-16T05:39:31.542Z,0.00
2018-12-16T05:40:31.483Z,0.00
2018-12-16T05:41:31.485Z,0.00
2018-12-16T05:42:31.493Z,0.00
2018-12-16T05:43:31.500Z,0.00
2018-12-16T05:44:31.503Z,0.00
2018-12-16T05:45:31.517Z,0.00
2018-12-16T05:46:31.522Z,0.00
2018-12-16T05:47:31.527Z,0.00
2018-12-16T05:48:31.533Z,0.00
2018-12-16T05:49:31.539Z,0.00
2018-12-16T05:50:31.544Z,0.00
2018-12-16T05:51:31.558Z,0.00
2018-12-16T05:52:31.557Z,0.00
2018-12-16T05:53:31.567Z,0.00
2018-12-16T05:54:31.576Z,0.00
2018-12-16T05:55:31.576Z,0.00
2018-12-16T05:56:31.588Z,0.00
2018-12-16T05:57:31.596Z,0.00
2018-12-16T05:58:31.597Z,0.00
2018-12-16T05:59:31.613Z,0.00
2018-12-16T06:00:32.423Z,0.00
2018-12-16T06:01:31.623Z,0.00
2018-12-16T06:02:31.619Z,0.00
2018-12-16T06:03:31.635Z,0.00
2018-12-16T06:04:31.637Z,0.00
2018-12-16T06:05:31.641Z,0.00
2018-12-16T06:06:31.653Z,0.00
2018-12-16T06:07:31.659Z,0.00
2018-12-16T06:08:31.659Z,0.00
2018-12-16T06:09:31.670Z,0.00
2018-12-16T06:10:31.679Z,0.00
2018-12-16T06:11:31.682Z,0.00
2018-12-16T06:12:31.685Z,0.00
2018-12-16T06:13:31.693Z,0.00
2018-12-16T06:14:31.710Z,0.00
2018-12-16T06:15:31.707Z,0.00
2018-12-16T06:16:31.715Z,0.00
2018-12-16T06:17:31.723Z,0.00
2018-12-16T06:18:31.741Z,0.00
2018-12-16T06:19:31.736Z,0.00
2018-12-16T06:20:31.745Z,0.00
2018-12-16T06:21:31.750Z,0.00
2018-12-16T06:22:31.771Z,0.00
2018-12-16T06:23:31.760Z,0.00
2018-12-16T06:24:31.769Z,0.00
2018-12-16T06:25:31.782Z,0.00
2018-12-16T06:26:31.791Z,0.00
2018-12-16T06:27:31.786Z,0.00
2018-12-16T06:28:31.797Z,0.00
2018-12-16T06:29:31.803Z,0.00
2018-12-16T06:30:31.807Z,0.00
2018-12-16T06:31:31.821Z,0.00
2018-12-16T06:32:31.822Z,0.00
2018-12-16T06:33:31.817Z,0.00
2018-12-16T06:34:31.839Z,0.00
2018-12-16T06:35:31.844Z,0.00
2018-12-16T06:36:31.839Z,0.00
2018-12-16T06:37:31.855Z,0.00
2018-12-16T06:38:31.861Z,0.00
2018-12-16T06:39:31.877Z,0.00
2018-12-16T06:40:31.881Z,0.00
2018-12-16T06:41:31.886Z,0.00
2018-12-16T06:42:31.897Z,0.00
2018-12-16T06:43:31.904Z,0.00
2018-12-16T06:44:32.043Z,0.00
2018-12-16T06:45:31.907Z,0.00
2018-12-16T06:46:31.985Z,0.00
2018-12-16T06:47:31.983Z,0.00
2018-12-16T06:48:31.995Z,0.00
2018-12-16T06:49:31.939Z,0.00
2018-12-16T06:50:32.009Z,0.00
2018-12-16T06:51:31.949Z,0.00
2018-12-16T06:52:31.962Z,0.00
2018-12-16T06:53:31.961Z,0.00
2018-12-16T06:54:31.968Z,0.00
2018-12-16T06:55:31.964Z,0.00
2018-12-16T06:56:31.985Z,0.00
2018-12-16T06:57:31.980Z,0.00
2018-12-16T06:58:32.828Z,0.00
2018-12-16T06:59:32.005Z,0.00
2018-12-16T07:00:32.009Z,0.00
2018-12-16T07:01:32.019Z,0.00
2018-12-16T07:02:32.045Z,4.00
2018-12-16T07:03:32.031Z,4.00
2018-12-16T07:04:32.038Z,4.00
2018-12-16T07:05:32.043Z,4.00
2018-12-16T07:06:32.068Z,0.00
2018-12-16T07:07:32.067Z,4.00
2018-12-16T07:08:32.067Z,4.00
2018-12-16T07:09:32.061Z,8.00
2018-12-16T07:10:32.080Z,4.00
2018-12-16T07:11:32.218Z,8.00
2018-12-16T07:12:32.132Z,8.00
2018-12-16T07:13:32.103Z,8.00
2018-12-16T07:14:32.108Z,8.00
2018-12-16T07:15:32.114Z,8.00
2018-12-16T07:16:32.137Z,12.00
2018-12-16T07:17:32.138Z,12.00
2018-12-16T07:18:32.124Z,12.00
2018-12-16T07:19:32.138Z,16.00
2018-12-16T07:20:32.145Z,20.00
2018-12-16T07:21:32.148Z,20.00
2018-12-16T07:22:32.169Z,20.00
2018-12-16T07:23:32.166Z,24.00
2018-12-16T07:24:32.173Z,24.00
2018-12-16T07:25:32.185Z,28.00
2018-12-16T07:26:32.179Z,24.00
2018-12-16T07:27:32.217Z,28.00
2018-12-16T07:28:32.194Z,28.00
2018-12-16T07:29:32.206Z,32.00
2018-12-16T07:30:32.224Z,36.00
2018-12-16T07:31:32.234Z,36.00
2018-12-16T07:32:32.229Z,40.00
2018-12-16T07:33:32.236Z,40.00
2018-12-16T07:34:32.258Z,44.00
2018-12-16T07:35:32.247Z,44.00
2018-12-16T07:36:32.253Z,48.00
2018-12-16T07:37:32.261Z,48.00
2018-12-16T07:38:32.285Z,48.00
2018-12-16T07:39:32.280Z,52.00
2018-12-16T07:40:32.283Z,52.00
2018-12-16T07:41:32.331Z,56.00
2018-12-16T07:42:32.313Z,60.00
2018-12-16T07:43:32.338Z,60.00
2018-12-16T07:44:32.319Z,60.00
2018-12-16T07:45:32.319Z,56.00
2018-12-16T07:46:32.323Z,60.00
2018-12-16T07:47:32.359Z,64.00
2018-12-16T07:48:32.342Z,64.00
2018-12-16T07:49:32.351Z,72.00
2018-12-16T07:50:32.352Z,80.00
2018-12-16T07:51:32.353Z,88.00
2018-12-16T07:52:32.387Z,88.00
2018-12-16T07:53:32.424Z,92.00
2018-12-16T07:54:32.377Z,100.00
2018-12-16T07:55:32.411Z,108.00
2018-12-16T07:56:32.412Z,116.00
2018-12-16T07:57:32.396Z,120.00
2018-12-16T07:58:32.428Z,124.00
2018-12-16T07:59:32.413Z,132.00
2018-12-16T08:00:32.430Z,140.00
2018-12-16T08:01:32.447Z,152.00
2018-12-16T08:02:32.427Z,164.00
2018-12-16T08:03:32.441Z,176.00
2018-12-16T08:04:32.447Z,184.00
2018-12-16T08:05:32.489Z,196.00
2018-12-16T08:06:32.462Z,204.00
2018-12-16T08:07:32.456Z,220.00
2018-12-16T08:08:32.473Z,224.00
2018-12-16T08:09:33.331Z,224.00
2018-12-16T08:10:32.489Z,220.00
2018-12-16T08:11:33.330Z,216.00
2018-12-16T08:12:32.503Z,216.00
2018-12-16T08:13:32.517Z,224.00
2018-12-16T08:14:32.517Z,232.00
2018-12-16T08:15:32.535Z,232.00
2018-12-16T08:16:32.532Z,236.00
2018-12-16T08:17:32.551Z,240.00
2018-12-16T08:18:32.537Z,260.00
2018-12-16T08:19:32.551Z,272.00
2018-12-16T08:20:32.561Z,288.00
2018-12-16T08:21:32.571Z,300.00
2018-12-16T08:22:32.576Z,308.00
2018-12-16T08:23:32.585Z,320.00
2018-12-16T08:24:32.581Z,340.00
2018-12-16T08:25:32.600Z,360.00
2018-12-16T08:26:32.593Z,372.00
2018-12-16T08:27:32.609Z,364.00
2018-12-16T08:28:32.601Z,364.00
2018-12-16T08:29:32.691Z,360.00
2018-12-16T08:30:32.628Z,368.00
2018-12-16T08:31:32.678Z,364.00
2018-12-16T08:32:32.637Z,364.00
2018-12-16T08:33:32.651Z,360.00
2018-12-16T08:34:32.655Z,360.00
2018-12-16T08:35:32.663Z,356.00
2018-12-16T08:36:32.663Z,368.00
2018-12-16T08:37:32.683Z,376.00
2018-12-16T08:38:32.685Z,400.00
2018-12-16T08:39:32.689Z,412.00
2018-12-16T08:40:32.698Z,412.00
2018-12-16T08:41:32.701Z,412.00
2018-12-16T08:42:32.712Z,408.00
2018-12-16T08:43:32.717Z,416.00
2018-12-16T08:44:32.731Z,424.00
2018-12-16T08:45:32.733Z,436.00
2018-12-16T08:46:32.737Z,440.00
2018-12-16T08:47:33.260Z,448.00
2018-12-16T08:48:32.747Z,476.00
2018-12-16T08:49:32.758Z,516.00
2018-12-16T08:50:32.779Z,548.00
2018-12-16T08:51:32.769Z,564.00
2018-12-16T08:52:32.777Z,564.00
2018-12-16T08:53:32.790Z,532.00
2018-12-16T08:54:32.793Z,528.00
2018-12-16T08:55:32.797Z,544.00
2018-12-16T08:56:32.806Z,584.00
2018-12-16T08:57:32.821Z,616.00
2018-12-16T08:58:32.836Z,648.00
2018-12-16T08:59:32.837Z,712.00
2018-12-16T09:00:32.834Z,776.00
2018-12-16T09:01:32.842Z,788.00
2018-12-16T09:02:32.852Z,712.00
2018-12-16T09:03:32.857Z,624.00
2018-12-16T09:04:32.863Z,576.00
2018-12-16T09:05:32.869Z,584.00
2018-12-16T09:06:32.877Z,588.00
2018-12-16T09:07:37.273Z,564.00
2018-12-16T09:08:32.896Z,560.00
2018-12-16T09:09:32.904Z,588.00
2018-12-16T09:10:34.218Z,604.00
2018-12-16T09:11:32.915Z,600.00
2018-12-16T09:12:32.923Z,600.00
2018-12-16T09:13:32.966Z,612.00
2018-12-16T09:14:32.944Z,644.00
2018-12-16T09:15:32.940Z,668.00
2018-12-16T09:16:32.953Z,680.00
2018-12-16T09:17:32.960Z,676.00
2018-12-16T09:18:32.972Z,684.00
2018-12-16T09:19:32.967Z,704.00
2018-12-16T09:20:32.980Z,716.00
2018-12-16T09:21:32.987Z,748.00
2018-12-16T09:22:32.995Z,772.00
2018-12-16T09:23:33.010Z,804.00
2018-12-16T09:24:37.224Z,864.00
2018-12-16T09:25:33.006Z,928.00
2018-12-16T09:26:33.024Z,968.00
2018-12-16T09:27:33.028Z,964.00
2018-12-16T09:28:33.039Z,964.00
2018-12-16T09:29:33.045Z,1008.00
2018-12-16T09:30:33.052Z,1052.00
2018-12-16T09:31:33.060Z,1036.00
2018-12-16T09:32:33.068Z,1012.00
2018-12-16T09:33:33.095Z,1036.00
2018-12-16T09:34:33.080Z,1100.00
2018-12-16T09:35:33.086Z,1148.00
2018-12-16T09:36:33.098Z,1156.00
2018-12-16T09:37:33.106Z,1168.00
2018-12-16T09:38:33.113Z,1200.00
2018-12-16T09:39:33.118Z,1224.00
2018-12-16T09:40:33.133Z,1236.00
2018-12-16T09:41:33.132Z,1272.00
2018-12-16T09:42:33.144Z,1416.00
2018-12-16T09:43:33.160Z,1532.00
2018-12-16T09:44:33.203Z,1636.00
2018-12-16T09:45:33.168Z,1740.00
2018-12-16T09:46:33.179Z,1620.00
2018-12-16T09:47:33.195Z,1532.00
2018-12-16T09:48:33.183Z,1528.00
2018-12-16T09:49:33.193Z,1552.00
2018-12-16T09:50:33.201Z,1484.00
2018-12-16T09:51:33.207Z,1656.00
2018-12-16T09:52:33.223Z,1804.00
2018-12-16T09:53:33.225Z,1784.00
2018-12-16T09:54:33.225Z,1876.00
2018-12-16T09:55:33.237Z,2048.00
2018-12-16T09:56:33.247Z,2228.00
2018-12-16T09:57:33.249Z,2228.00
2018-12-16T09:58:33.257Z,2168.00
2018-12-16T09:59:33.265Z,2180.00
2018-12-16T10:00:33.273Z,2220.00
2018-12-16T10:01:33.287Z,2248.00
2018-12-16T10:02:33.291Z,2252.00
2018-12-16T10:03:33.289Z,2400.00
2018-12-16T10:04:33.308Z,2544.00
2018-12-16T10:05:33.315Z,2600.00
2018-12-16T10:06:33.322Z,2688.00
2018-12-16T10:07:33.326Z,2856.00
2018-12-16T10:08:33.336Z,2800.00
2018-12-16T10:09:33.335Z,2712.00
2018-12-16T10:10:33.344Z,2672.00
2018-12-16T10:11:33.357Z,2552.00
2018-12-16T10:12:33.369Z,2440.00
2018-12-16T10:13:33.370Z,2320.00
2018-12-16T10:14:33.381Z,2228.00
2018-12-16T10:15:33.385Z,2188.00
2018-12-16T10:16:33.404Z,2236.00
2018-12-16T10:17:33.404Z,2180.00
2018-12-16T10:18:33.407Z,2132.00
2018-12-16T10:19:33.418Z,2080.00
2018-12-16T10:20:33.425Z,2140.00
2018-12-16T10:21:33.490Z,2248.00
2018-12-16T10:22:33.448Z,2344.00
2018-12-16T10:23:33.444Z,2540.00
2018-12-16T10:24:33.462Z,2660.00
2018-12-16T10:25:33.470Z,2612.00
2018-12-16T10:26:33.481Z,2528.00
2018-12-16T10:27:33.480Z,2412.00
2018-12-16T10:28:33.491Z,2488.00
2018-12-16T10:29:33.502Z,2676.00
2018-12-16T10:30:33.508Z,2692.00
2018-12-16T10:31:33.526Z,2376.00
2018-12-16T10:32:33.518Z,2092.00
2018-12-16T10:33:33.526Z,2004.00
2018-12-16T10:34:33.537Z,2220.00
2018-12-16T10:35:33.541Z,2192.00
2018-12-16T10:36:33.550Z,2268.00
2018-12-16T10:37:33.564Z,2192.00
2018-12-16T10:38:33.570Z,2248.00
2018-12-16T10:39:33.582Z,2332.00
2018-12-16T10:40:33.583Z,2260.00
2018-12-16T10:41:33.587Z,2184.00
2018-12-16T10:42:33.607Z,2084.00
2018-12-16T10:43:33.611Z,2012.00
2018-12-16T10:44:33.706Z,1976.00
2018-12-16T10:45:33.612Z,2096.00
2018-12-16T10:46:33.792Z,2232.00
2018-12-16T10:47:33.637Z,2224.00
2018-12-16T10:48:33.636Z,2136.00
2018-12-16T10:49:33.708Z,2152.00
2018-12-16T10:50:33.660Z,2240.00
2018-12-16T10:51:33.777Z,3336.00
2018-12-16T10:52:33.695Z,3260.00
2018-12-16T10:53:33.768Z,3188.00
2018-12-16T10:54:33.691Z,3092.00
2018-12-16T10:55:33.762Z,2996.00
